createdAt,value
2022-09-06T05:31:29.330Z,991.33
2022-09-06T05:32:28.895Z,991.29
2022-09-06T05:33:35.137Z,991.31
2022-09-06T05:34:32.561Z,991.35
2022-09-06T05:35:34.279Z,991.33
2022-09-06T05:36:41.418Z,991.29
2022-09-06T05:37:34.412Z,991.31
2022-09-06T05:38:41.712Z,991.3
2022-09-06T05:39:39.050Z,991.22
2022-09-06T05:40:38.612Z,991.26
2022-09-06T05:41:42.472Z,991.25
2022-09-06T05:42:41.884Z,991.29
2022-09-06T05:43:45.309Z,991.34
2022-09-06T05:44:48.511Z,991.31
2022-09-06T05:52:08.384Z,991.39
2022-09-06T05:53:11.237Z,991.39
2022-09-06T05:54:14.065Z,991.4
2022-09-06T05:55:16.895Z,991.46
2022-09-06T05:56:19.718Z,991.46
2022-09-06T05:57:22.639Z,991.47
2022-09-06T05:58:25.889Z,991.45
2022-09-06T05:59:28.702Z,991.47
2022-09-06T06:00:31.557Z,991.43
2022-09-06T06:01:34.770Z,991.41
2022-09-06T06:02:38.111Z,991.47
2022-09-06T06:03:41.045Z,991.49
2022-09-06T06:04:43.943Z,991.5
2022-09-06T06:05:46.866Z,991.47
2022-09-06T06:06:49.740Z,991.53
2022-09-06T06:07:52.609Z,991.51
2022-09-06T06:08:55.506Z,991.54
2022-09-06T06:09:58.344Z,991.57
2022-09-06T06:11:01.157Z,991.55
2022-09-06T06:12:03.967Z,991.56
2022-09-06T06:13:06.777Z,991.59
2022-09-06T06:14:09.583Z,991.59
2022-09-06T06:15:12.504Z,991.54
2022-09-06T06:16:15.724Z,991.56
2022-09-06T06:17:18.619Z,991.55
2022-09-06T06:18:21.949Z,991.59
2022-09-06T06:19:24.888Z,991.59
2022-09-06T06:20:27.823Z,991.56
2022-09-06T06:21:30.852Z,991.6
2022-09-06T06:22:33.646Z,991.58
2022-09-06T06:23:36.472Z,991.56
2022-09-06T06:24:39.330Z,991.58
2022-09-06T06:25:42.138Z,991.56
2022-09-06T06:26:44.994Z,991.58
2022-09-06T06:27:47.865Z,991.53
2022-09-06T06:28:51.405Z,991.53
2022-09-06T06:29:52.198Z,991.53
2022-09-06T06:30:51.574Z,991.52
2022-09-06T06:31:55.492Z,991.51
2022-09-06T06:32:55.220Z,991.54
2022-09-06T06:33:58.032Z,991.51
2022-09-06T06:35:00.872Z,991.5
2022-09-06T06:36:03.684Z,991.52
2022-09-06T06:37:06.542Z,991.48
2022-09-06T06:38:09.358Z,991.48
2022-09-06T06:39:12.162Z,991.49
2022-09-06T06:40:15.054Z,991.46
2022-09-06T06:41:17.906Z,991.45
2022-09-06T06:42:20.738Z,991.46
2022-09-06T06:43:23.537Z,991.51
2022-09-06T06:44:26.388Z,991.51
2022-09-06T06:45:29.604Z,991.56
2022-09-06T06:46:32.425Z,991.59
2022-09-06T06:47:35.295Z,991.62
2022-09-06T06:48:38.101Z,991.66
2022-09-06T06:49:40.916Z,991.64
2022-09-06T06:50:43.777Z,991.68
2022-09-06T06:51:46.597Z,991.67
2022-09-06T06:52:49.385Z,991.69
2022-09-06T06:53:52.192Z,991.73
2022-09-06T06:54:54.987Z,991.77
2022-09-06T06:55:57.783Z,991.72
2022-09-06T06:57:00.661Z,991.71
2022-09-06T06:58:03.539Z,991.73
2022-09-06T06:59:06.363Z,991.73
2022-09-06T07:00:09.427Z,991.69
2022-09-06T07:01:13.469Z,991.72
2022-09-06T07:02:14.061Z,991.72
2022-09-06T07:03:13.648Z,991.66
2022-09-06T07:04:16.616Z,991.65
2022-09-06T15:02:23.030Z,988.79
2022-09-06T15:02:23.607Z,988.79
2022-09-06T15:03:27.028Z,988.77
2022-09-06T15:04:30.718Z,988.75
2022-09-06T15:06:03.284Z,988.77
2022-09-06T15:06:37.831Z,988.76
2022-09-06T15:07:33.735Z,988.78
2022-09-06T15:08:36.589Z,988.8
2022-09-06T15:09:39.693Z,988.77
2022-09-06T15:10:42.746Z,988.76
2022-09-06T15:11:45.743Z,988.76
2022-09-06T15:12:48.616Z,988.76
2022-09-06T15:13:51.467Z,988.74
2022-09-06T15:14:54.322Z,988.76
2022-09-06T15:15:59.622Z,988.77
2022-09-06T15:17:00.396Z,988.8
2022-09-06T15:18:00.288Z,988.78
2022-09-06T15:19:03.430Z,988.74
2022-09-06T15:20:15.262Z,988.75
2022-09-06T15:21:07.852Z,988.77
2022-09-06T15:22:28.640Z,988.67
2022-09-06T15:23:36.316Z,988.71
2022-09-06T15:24:15.535Z,988.7
2022-09-06T15:25:18.478Z,988.65
2022-09-06T15:26:21.524Z,988.63
2022-09-06T15:27:25.547Z,988.67
2022-09-06T15:28:25.454Z,988.66
2022-09-06T15:29:31.562Z,988.63
2022-09-06T15:30:48.262Z,988.62
2022-09-06T15:31:38.197Z,988.61
2022-09-06T15:32:35.254Z,988.61
2022-09-06T15:33:41.667Z,988.61
2022-09-06T15:34:53.726Z,988.55
2022-09-06T15:35:44.201Z,988.57
2022-09-06T15:36:50.683Z,988.5
2022-09-06T15:37:46.989Z,988.48
2022-09-06T15:39:01.465Z,988.48
2022-09-06T15:42:01.705Z,988.43
2022-09-06T15:43:13.633Z,988.46
2022-09-06T15:44:25.443Z,988.41
2022-09-06T15:44:58.617Z,988.45
2022-09-06T15:46:07.803Z,988.46
2022-09-06T15:47:07.899Z,988.41
2022-09-06T15:48:19.785Z,988.42
2022-09-06T15:49:06.107Z,988.39
2022-09-06T15:50:09.841Z,988.41
2022-09-06T15:51:35.387Z,988.42
2022-09-06T15:52:17.339Z,988.36
2022-09-06T15:53:21.320Z,988.35
2022-09-06T15:54:35.697Z,988.33
2022-09-06T15:55:20.900Z,988.34
2022-09-06T15:56:27.800Z,988.29
2022-09-06T15:57:32.788Z,988.31
2022-09-06T15:58:35.567Z,988.28
2022-09-06T15:59:28.491Z,988.3
2022-09-06T16:00:31.771Z,988.26
2022-09-06T16:01:53.288Z,988.22
2022-09-06T16:02:41.871Z,988.23
2022-09-06T16:03:41.272Z,988.23
2022-09-06T16:04:41.637Z,988.18
2022-09-06T16:06:29.158Z,988.18
2022-09-06T16:06:45.396Z,988.14
2022-09-06T16:07:50.623Z,988.09
2022-09-06T16:09:08.023Z,988.09
2022-09-06T16:09:49.003Z,988.08
2022-09-06T16:10:58.342Z,987.99
2022-09-06T16:11:58.266Z,988.03
2022-09-06T16:13:05.456Z,987.98
2022-09-06T16:13:59.396Z,987.98
2022-09-06T16:15:00.673Z,987.98
2022-09-06T16:16:03.363Z,987.92
2022-09-06T16:17:08.948Z,987.96
2022-09-06T16:18:08.242Z,987.92
2022-09-06T16:19:08.127Z,987.88
2022-09-06T16:20:21.854Z,987.84
2022-09-06T16:21:14.686Z,987.84
2022-09-06T16:22:18.406Z,987.81
2022-09-06T16:23:16.223Z,987.8
2022-09-06T16:24:25.879Z,987.8
2022-09-06T16:25:23.349Z,987.76
2022-09-06T16:26:24.120Z,987.69
2022-09-06T16:27:26.774Z,987.68
2022-09-06T16:28:24.394Z,987.66
2022-09-06T16:29:27.926Z,987.64
2022-09-06T16:30:26.826Z,987.62
2022-09-06T16:31:28.361Z,987.61
2022-09-06T16:32:29.663Z,987.6
2022-09-06T16:33:32.930Z,987.62
2022-09-06T16:34:34.068Z,987.62
2022-09-06T16:35:37.490Z,987.65
2022-09-06T16:36:46.762Z,987.63
2022-09-06T16:37:37.445Z,987.64
2022-09-06T16:38:44.019Z,987.69
2022-09-06T16:39:44.878Z,987.7
2022-09-06T16:40:42.526Z,987.73
2022-09-06T16:41:42.023Z,987.76
2022-09-06T16:42:48.485Z,987.78
2022-09-06T16:43:49.728Z,987.79
2022-09-06T16:44:52.608Z,987.77
2022-09-06T16:46:09.563Z,987.81
2022-09-06T16:46:59.172Z,987.8
2022-09-06T16:47:56.603Z,987.85
2022-09-06T16:48:56.229Z,987.9
2022-09-06T16:49:59.737Z,987.92
2022-09-06T16:51:02.797Z,987.92
2022-09-06T16:52:06.097Z,987.88
2022-09-06T16:53:06.103Z,987.9
2022-09-06T16:54:09.245Z,987.87
2022-09-06T16:55:12.150Z,987.84
2022-09-06T16:56:15.133Z,987.84
2022-09-06T16:57:18.094Z,987.86
2022-09-06T16:58:20.986Z,987.83
2022-09-06T16:59:23.891Z,987.87
2022-09-06T17:00:26.983Z,987.93
2022-09-06T17:01:30.662Z,987.89
2022-09-06T17:02:30.851Z,987.9
2022-09-06T17:03:30.434Z,987.88
2022-09-06T17:04:33.499Z,987.88
2022-09-06T17:05:36.462Z,987.92
2022-09-06T17:06:39.619Z,987.94
2022-09-06T17:07:43.312Z,987.88
2022-09-06T17:08:54.502Z,987.94
2022-09-06T17:09:44.910Z,987.92
2022-09-06T17:10:45.180Z,987.89
2022-09-06T17:11:46.231Z,987.89
2022-09-06T17:12:49.913Z,987.85
2022-09-06T17:13:49.929Z,987.87
2022-09-06T17:14:50.244Z,987.86
2022-09-06T17:15:49.775Z,987.88
2022-09-06T17:16:53.408Z,987.9
2022-09-06T17:17:52.954Z,987.92
2022-09-06T17:18:55.818Z,987.92
2022-09-06T17:19:58.788Z,987.94
2022-09-06T17:21:01.606Z,987.94
2022-09-06T17:22:04.997Z,987.9
2022-09-06T17:23:08.024Z,987.95
2022-09-06T17:24:11.045Z,987.93
2022-09-06T17:25:14.859Z,987.91
2022-09-06T17:26:15.802Z,987.88
2022-09-06T17:27:24.212Z,987.89
2022-09-06T17:28:18.585Z,987.85
2022-09-06T17:29:24.421Z,987.85
2022-09-06T17:30:24.195Z,987.86
2022-09-06T17:31:27.262Z,987.88
2022-09-06T17:32:27.361Z,987.87
2022-09-06T17:33:27.549Z,987.86
2022-09-06T17:34:27.735Z,987.85
2022-09-06T17:35:40.961Z,987.84
2022-09-06T17:36:46.907Z,987.82
2022-09-06T17:37:31.431Z,987.81
2022-09-06T17:38:32.852Z,987.87
2022-09-06T17:39:32.941Z,987.81
2022-09-06T17:40:32.735Z,987.87
2022-09-06T17:41:37.306Z,987.89
2022-09-06T17:42:37.567Z,987.8
2022-09-06T17:43:40.993Z,987.85
2022-09-06T17:44:41.440Z,987.84
2022-09-06T17:45:41.785Z,987.8
2022-09-06T17:47:17.443Z,987.84
2022-09-06T17:47:43.184Z,987.8
2022-09-06T17:48:45.060Z,987.81
2022-09-06T17:49:44.463Z,987.79
2022-09-06T17:50:47.981Z,987.77
2022-09-06T17:51:47.638Z,987.75
2022-09-06T17:52:50.858Z,987.8
2022-09-06T17:53:54.287Z,987.81
2022-09-06T17:54:55.536Z,987.81
2022-09-06T17:55:56.229Z,987.82
2022-09-06T17:56:57.027Z,987.82
2022-09-06T17:57:57.217Z,987.83
2022-09-06T17:58:56.835Z,987.81
2022-09-06T17:59:59.926Z,987.8
2022-09-06T18:01:03.148Z,987.78
2022-09-06T18:02:06.342Z,987.77
2022-09-06T18:03:11.239Z,987.77
2022-09-06T18:04:12.679Z,987.78
2022-09-06T18:05:14.753Z,987.79
2022-09-06T18:06:15.650Z,987.8
2022-09-06T18:07:17.670Z,987.79
2022-09-06T18:08:19.146Z,987.8
2022-09-06T18:09:21.265Z,987.79
2022-09-06T18:10:21.213Z,987.81
2022-09-06T18:11:22.570Z,987.79
2022-09-06T18:12:23.803Z,987.83
2022-09-06T18:13:23.457Z,987.79
2022-09-06T18:14:24.683Z,987.85
2022-09-06T18:15:24.272Z,987.84
2022-09-06T18:16:28.005Z,987.83
2022-09-06T18:17:27.658Z,987.85
2022-09-06T18:18:30.759Z,987.83
2022-09-06T18:19:36.857Z,987.85
2022-09-06T18:20:36.892Z,987.84
2022-09-06T18:21:37.250Z,987.83
2022-09-06T18:22:37.636Z,987.79
2022-09-06T18:23:37.140Z,987.8
2022-09-06T18:24:40.582Z,987.81
2022-09-06T18:25:43.645Z,987.82
2022-09-06T18:26:47.499Z,987.83
2022-09-06T18:27:47.606Z,987.84
2022-09-06T18:28:50.597Z,987.84
2022-09-06T18:29:50.490Z,987.86
2022-09-06T18:30:54.145Z,987.89
2022-09-06T18:31:54.439Z,987.91
2022-09-06T18:32:54.862Z,987.91
2022-09-06T18:33:54.946Z,987.93
2022-09-06T18:34:55.444Z,987.93
2022-09-06T18:36:00.026Z,987.94
2022-09-06T18:36:59.256Z,987.98
2022-09-06T18:38:12.072Z,987.95
2022-09-06T18:39:01.167Z,987.97
2022-09-06T18:40:07.352Z,987.96
2022-09-06T18:41:07.718Z,987.98
2022-09-06T18:42:07.651Z,988
2022-09-06T18:43:10.646Z,988.01
2022-09-06T18:44:14.298Z,988.04
2022-09-06T18:45:14.016Z,988.04
2022-09-06T18:46:17.944Z,988.03
2022-09-06T18:47:17.520Z,988.03
2022-09-06T18:48:20.940Z,988.08
2022-09-06T18:49:23.811Z,988.01
2022-09-06T18:50:26.842Z,988.04
2022-09-06T18:51:29.963Z,988.04
2022-09-06T18:52:32.845Z,988.01
2022-09-06T18:53:35.997Z,988.01
2022-09-06T18:54:38.925Z,988.02
2022-09-06T18:55:41.827Z,988.01
2022-09-06T18:56:44.952Z,988.01
2022-09-06T18:57:48.439Z,988.07
2022-09-06T18:58:48.188Z,988.08
2022-09-06T18:59:51.585Z,988.06
2022-09-06T19:00:54.986Z,988.09
2022-09-06T19:01:58.893Z,988.14
2022-09-06T19:02:58.453Z,988.09
2022-09-06T19:04:02.096Z,988.14
2022-09-06T19:05:01.665Z,988.1
2022-09-06T19:06:04.734Z,988.15
2022-09-06T19:07:08.039Z,988.12
2022-09-06T19:08:10.967Z,988.12
2022-09-06T19:09:14.177Z,988.1
2022-09-06T19:10:17.100Z,988.12
2022-09-06T19:11:19.944Z,988.05
2022-09-06T19:12:23.046Z,988.08
2022-09-06T19:13:26.014Z,988.06
2022-09-06T19:14:28.919Z,988.1
2022-09-06T19:15:31.982Z,988.1
2022-09-06T19:16:35.346Z,988.12
2022-09-06T19:17:34.930Z,988.1
2022-09-06T19:18:38.067Z,988.12
2022-09-06T19:19:40.921Z,988.14
2022-09-06T19:20:43.838Z,988.12
2022-09-06T19:21:46.718Z,988.1
2022-09-06T19:22:49.606Z,988.08
2022-09-06T19:23:52.437Z,988.07
2022-09-06T19:24:55.314Z,988.06
2022-09-06T19:25:58.208Z,988.1
2022-09-06T19:27:01.037Z,988.08
2022-09-06T19:28:03.905Z,988.11
2022-09-06T19:29:06.864Z,988.1
2022-09-06T19:30:09.703Z,988.09
2022-09-06T19:31:13.191Z,988.11
2022-09-06T19:32:15.702Z,988.06
2022-09-06T19:33:18.596Z,988.06
2022-09-06T19:34:21.498Z,988.11
2022-09-06T19:35:24.380Z,988.08
2022-09-06T19:36:27.296Z,988.09
2022-09-06T19:37:30.178Z,988.11
2022-09-06T19:39:12.069Z,988.13
2022-09-06T19:39:44.253Z,988.16
2022-09-06T19:40:33.662Z,988.13
2022-09-06T19:41:36.908Z,988.14
2022-09-06T19:42:40.042Z,988.15
2022-09-06T19:43:43.374Z,988.16
2022-09-06T19:44:47.018Z,988.17
2022-09-06T19:45:47.097Z,988.19
2022-09-06T19:46:47.999Z,988.22
2022-09-06T19:47:47.556Z,988.23
2022-09-06T19:48:50.491Z,988.17
2022-09-06T19:49:53.609Z,988.17
2022-09-06T19:50:56.649Z,988.14
2022-09-06T19:51:59.760Z,988.13
2022-09-06T19:53:07.795Z,988.16
2022-09-06T19:54:03.867Z,988.17
2022-09-06T19:55:06.772Z,988.15
2022-09-06T19:56:11.807Z,988.16
2022-09-06T19:57:11.212Z,988.18
2022-09-06T19:58:14.111Z,988.15
2022-09-06T19:59:17.040Z,988.17
2022-09-06T20:00:20.046Z,988.19
2022-09-06T20:01:23.413Z,988.17
2022-09-06T20:02:26.617Z,988.18
2022-09-06T20:03:29.554Z,988.22
2022-09-06T20:04:32.414Z,988.21
2022-09-06T20:05:35.306Z,988.25
2022-09-06T20:06:38.201Z,988.21
2022-09-06T20:07:41.244Z,988.2
2022-09-06T20:08:44.132Z,988.23
2022-09-06T20:09:52.976Z,988.2
2022-09-06T20:10:49.100Z,988.18
2022-09-06T20:11:52.055Z,988.18
2022-09-06T20:12:55.040Z,988.16
2022-09-06T20:13:57.977Z,988.11
2022-09-06T20:15:01.145Z,988.07
2022-09-06T20:16:04.603Z,988.04
2022-09-06T20:17:34.769Z,988.02
2022-09-06T20:18:14.834Z,988.03
2022-09-06T20:19:07.981Z,987.98
2022-09-06T20:20:11.549Z,987.99
2022-09-06T20:21:13.152Z,987.99
2022-09-06T20:22:09.407Z,988.01
2022-09-06T20:23:12.877Z,988
2022-09-06T20:24:36.810Z,987.97
2022-09-06T20:25:16.337Z,987.94
2022-09-06T20:26:16.538Z,987.92
2022-09-06T20:27:16.019Z,987.89
2022-09-06T20:28:18.955Z,987.87
2022-09-06T20:29:21.952Z,987.85
2022-09-06T20:30:25.094Z,987.81
2022-09-06T20:31:29.703Z,987.78
2022-09-06T20:32:29.728Z,987.82
2022-09-06T20:33:36.395Z,987.81
2022-09-06T20:34:59.081Z,987.81
2022-09-06T20:35:37.948Z,987.83
2022-09-06T20:37:03.546Z,987.86
2022-09-06T20:37:42.826Z,987.8
2022-09-06T20:38:51.167Z,987.85
2022-09-06T20:39:49.765Z,987.81
2022-09-06T20:40:46.927Z,987.78
2022-09-06T20:41:50.270Z,987.8
2022-09-06T20:42:50.212Z,987.82
2022-09-06T20:43:53.449Z,987.81
2022-09-06T20:45:05.612Z,987.78
2022-09-06T20:46:01.157Z,987.84
2022-09-06T20:47:02.062Z,987.86
2022-09-06T20:48:02.095Z,987.87
2022-09-06T20:49:06.047Z,987.9
2022-09-06T20:50:11.719Z,987.92
2022-09-06T20:51:08.547Z,987.91
2022-09-06T20:52:08.593Z,987.95
2022-09-06T20:53:11.179Z,987.92
2022-09-06T20:54:11.044Z,987.98
2022-09-06T20:55:15.626Z,987.99
2022-09-06T20:56:15.749Z,988.02
2022-09-06T20:57:15.668Z,988.01
2022-09-06T20:58:15.886Z,988.04
2022-09-06T20:59:18.928Z,987.99
2022-09-06T21:00:18.570Z,987.97
2022-09-06T21:01:22.688Z,987.98
2022-09-06T21:02:23.162Z,987.98
2022-09-06T21:03:22.865Z,987.97
2022-09-06T21:04:25.918Z,987.99
2022-09-06T21:05:28.979Z,988.01
2022-09-06T21:06:32.076Z,988
2022-09-06T21:07:36.460Z,988.02
2022-09-06T21:08:43.541Z,988.02
2022-09-06T21:09:36.307Z,988.05
2022-09-06T21:10:39.237Z,988.09
2022-09-06T21:11:42.094Z,988.1
2022-09-06T21:12:45.090Z,988.12
2022-09-06T21:13:48.002Z,988.11
2022-09-06T21:14:51.199Z,988.13
2022-09-06T21:15:54.371Z,988.16
2022-09-06T21:16:57.500Z,988.18
2022-09-06T21:18:00.508Z,988.21
2022-09-06T21:19:03.447Z,988.17
2022-09-06T21:20:06.269Z,988.22
2022-09-06T21:21:09.171Z,988.19
2022-09-06T21:22:12.069Z,988.22
2022-09-06T21:23:15.673Z,988.21
2022-09-06T21:24:15.872Z,988.24
2022-09-06T21:25:18.827Z,988.28
2022-09-06T21:26:21.830Z,988.28
2022-09-06T21:27:24.685Z,988.27
2022-09-06T21:28:27.827Z,988.25
2022-09-06T21:29:30.724Z,988.23
2022-09-06T21:30:33.647Z,988.25
2022-09-06T21:31:50.099Z,988.24
2022-09-06T21:32:39.319Z,988.26
2022-09-06T21:33:42.204Z,988.27
2022-09-06T21:34:49.278Z,988.28
2022-09-06T21:35:45.299Z,988.33
2022-09-06T21:36:52.649Z,988.4
2022-09-06T21:37:51.025Z,988.38
2022-09-06T21:38:51.482Z,988.38
2022-09-06T21:39:56.409Z,988.4
2022-09-06T21:40:52.493Z,988.4
2022-09-06T21:41:55.327Z,988.36
2022-09-06T21:43:04.170Z,988.31
2022-09-06T21:44:00.139Z,988.28
2022-09-06T21:45:03.286Z,988.26
2022-09-06T21:46:06.818Z,988.29
2022-09-06T21:47:10.346Z,988.21
2022-09-06T21:48:06.508Z,988.21
2022-09-06T21:49:09.405Z,988.17
2022-09-06T21:50:12.519Z,988.16
2022-09-06T21:51:15.400Z,988.17
2022-09-06T21:52:18.244Z,988.15
2022-09-06T21:53:21.178Z,988.18
2022-09-06T21:54:24.013Z,988.14
2022-09-06T21:55:26.835Z,988.12
2022-09-06T21:56:29.652Z,988.07
2022-09-06T21:57:32.499Z,988.12
2022-09-06T21:58:35.312Z,988.12
2022-09-06T21:59:38.163Z,988.14
2022-09-06T22:00:41.376Z,988.16
2022-09-06T22:01:45.773Z,988.17
2022-09-06T22:02:45.213Z,988.18
2022-09-06T22:03:48.163Z,988.16
2022-09-06T22:04:51.018Z,988.15
2022-09-06T22:05:53.859Z,988.09
2022-09-06T22:06:56.716Z,988.1
2022-09-06T22:07:59.533Z,988.09
2022-09-06T22:09:02.332Z,988.11
2022-09-06T22:10:05.175Z,988.05
2022-09-06T22:11:08.112Z,988.1
2022-09-06T22:12:10.918Z,988.13
2022-09-06T22:13:13.770Z,988.19
2022-09-06T22:14:16.625Z,988.19
2022-09-06T22:15:19.457Z,988.2
2022-09-06T22:16:22.853Z,988.21
2022-09-06T22:17:25.710Z,988.18
2022-09-06T22:18:28.999Z,988.17
2022-09-06T22:19:31.874Z,988.13
2022-09-06T22:20:34.685Z,988.13
2022-09-06T22:21:37.522Z,988.13
2022-09-06T22:22:40.562Z,988.15
2022-09-06T22:23:43.388Z,988.15
2022-09-06T22:24:46.221Z,988.13
2022-09-06T22:25:49.054Z,988.14
2022-09-06T22:26:51.884Z,988.12
2022-09-06T22:27:54.787Z,988.15
2022-09-06T22:28:57.747Z,988.14
2022-09-06T22:30:00.679Z,988.14
2022-09-06T22:31:03.780Z,988.13
2022-09-06T22:32:06.710Z,988.12
2022-09-06T22:33:09.539Z,988.13
2022-09-06T22:34:12.344Z,988.12
2022-09-06T22:35:15.159Z,988.13
2022-09-06T22:36:18.131Z,988.18
2022-09-06T22:37:20.982Z,988.2
2022-09-06T22:38:24.201Z,988.22
2022-09-06T22:39:27.140Z,988.21
2022-09-06T22:40:30.104Z,988.22
2022-09-06T22:41:32.944Z,988.24
2022-09-06T22:42:35.777Z,988.19
2022-09-06T22:43:38.619Z,988.18
2022-09-06T22:44:41.445Z,988.15
2022-09-06T22:45:52.331Z,988.14
2022-09-06T22:46:45.343Z,988.16
2022-09-06T22:47:48.273Z,988.17
2022-09-06T22:48:51.181Z,988.15
2022-09-06T22:49:54.042Z,988.12
2022-09-06T22:50:56.849Z,988.04
2022-09-06T22:51:59.679Z,988.06
2022-09-06T22:53:02.529Z,987.99
2022-09-06T22:54:05.345Z,987.99
2022-09-06T22:55:08.159Z,987.99
2022-09-06T22:56:10.988Z,987.96
2022-09-06T22:57:13.884Z,987.94
2022-09-06T22:58:16.758Z,987.98
2022-09-06T22:59:19.615Z,988.02
2022-09-06T23:00:22.424Z,988.03
2022-09-06T23:01:25.514Z,988.06
2022-09-06T23:02:28.413Z,988.06
2022-09-06T23:03:31.453Z,988.05
2022-09-06T23:04:34.658Z,988.05
2022-09-06T23:05:37.550Z,988.02
2022-09-06T23:06:40.370Z,987.98
2022-09-06T23:07:43.187Z,987.98
2022-09-06T23:08:46.007Z,987.94
2022-09-06T23:09:48.841Z,987.9
2022-09-06T23:10:51.753Z,987.95
2022-09-06T23:11:54.600Z,987.91
2022-09-06T23:12:57.556Z,987.91
2022-09-06T23:14:00.415Z,987.95
2022-09-06T23:15:03.233Z,987.91
2022-09-06T23:16:10.980Z,987.89
2022-09-06T23:17:08.610Z,987.88
2022-09-06T23:18:11.457Z,987.86
2022-09-06T23:19:14.297Z,987.85
2022-09-06T23:20:17.129Z,987.8
2022-09-06T23:21:19.960Z,987.76
2022-09-06T23:22:22.819Z,987.73
2022-09-06T23:23:25.647Z,987.74
2022-09-06T23:24:28.500Z,987.73
2022-09-06T23:25:31.336Z,987.72
2022-09-06T23:26:34.206Z,987.76
2022-09-06T23:27:37.039Z,987.8
2022-09-06T23:28:39.883Z,987.84
2022-09-06T23:29:42.712Z,987.85
2022-09-06T23:30:45.544Z,987.86
2022-09-06T23:31:48.755Z,987.88
2022-09-06T23:32:51.653Z,987.9
2022-09-06T23:33:54.478Z,987.89
2022-09-06T23:34:57.298Z,987.9
2022-09-06T23:36:00.121Z,987.88
2022-09-06T23:37:02.942Z,987.89
2022-09-06T23:38:05.771Z,987.84
2022-09-06T23:39:08.600Z,987.85
2022-09-06T23:40:11.997Z,987.82
2022-09-06T23:41:11.838Z,987.82
2022-09-06T23:42:14.638Z,987.81
2022-09-06T23:43:17.480Z,987.8
2022-09-06T23:44:20.323Z,987.85
2022-09-06T23:45:23.146Z,987.82
2022-09-06T23:46:26.309Z,987.87
2022-09-06T23:47:29.199Z,987.83
2022-09-06T23:48:32.744Z,987.87
2022-09-06T23:49:32.100Z,987.87
2022-09-06T23:50:34.907Z,987.84
2022-09-06T23:51:37.738Z,987.82
2022-09-06T23:52:40.557Z,987.8
2022-09-06T23:53:43.385Z,987.81
2022-09-06T23:54:46.412Z,987.81
2022-09-06T23:55:49.243Z,987.82
2022-09-06T23:56:52.061Z,987.83
2022-09-06T23:57:54.879Z,987.85
2022-09-06T23:58:57.698Z,987.85
